Moscow, Indiana
Current Conditions -  °F | °C
As of 3:53 PM on Tuesday 27 Jan 2015 (Local Time) from KGEZ Reporting Station
Overcast Overcast  
Wind Chill: 23°   Ceiling: 5500
Heat Index: 31°   Visibility: 10mi
Dew Point: 13°   Wind: 8mph
Humidity: 47%   Direction: 360°N
Pressure: 30.13"   Gusts: NA
Location:  39.4961°N, 85.5177°W
Report Text: KGEZ 272053Z AUTO 36007KT 10SM OVC055 M01/M11 A3013 RMK AO2 SLP213 T10061106 53007
Loading
Personal Weather Stations






























Interactive Weather Map New forecast layout! Learn more

10-Day Weather Forecast

Advertisements
Track Severe Weather on mobile